createdAt,value
2023-04-20T00:00:11.842Z,2.50
2023-04-20T00:02:42.285Z,2.90
2023-04-20T00:05:12.907Z,2.80
2023-04-20T00:07:42.041Z,2.90
2023-04-20T00:10:12.244Z,3.10
2023-04-20T00:12:40.565Z,2.97
2023-04-20T00:15:12.498Z,3.47
2023-04-20T00:17:41.070Z,2.92
2023-04-20T00:20:11.110Z,2.60
2023-04-20T00:22:40.084Z,2.70
2023-04-20T00:25:10.906Z,3.20
2023-04-20T00:27:39.348Z,3.30
2023-04-20T00:30:09.747Z,3.13
2023-04-20T00:32:39.642Z,3.00
2023-04-20T00:35:08.571Z,2.80
2023-04-20T00:37:36.974Z,2.90
2023-04-20T00:40:07.063Z,3.00
2023-04-20T00:42:35.778Z,3.03
2023-04-20T00:45:05.756Z,2.90
2023-04-20T00:47:34.700Z,3.85
2023-04-20T00:50:05.198Z,3.13
2023-04-20T00:52:34.539Z,3.65
2023-04-20T00:55:03.527Z,3.38
2023-04-20T00:57:32.915Z,3.13
2023-04-20T01:00:01.610Z,3.42
2023-04-20T01:02:30.194Z,3.03
2023-04-20T01:04:59.117Z,3.10
2023-04-20T01:07:30.380Z,2.88
2023-04-20T01:09:58.836Z,3.47
2023-04-20T01:12:27.484Z,3.03
2023-04-20T01:14:57.139Z,2.88
2023-04-20T01:17:25.878Z,2.75
2023-04-20T01:19:54.481Z,3.00
2023-04-20T01:22:24.498Z,2.63
2023-04-20T01:24:53.100Z,2.88
2023-04-20T01:27:21.923Z,2.92
2023-04-20T01:29:50.577Z,2.97
2023-04-20T01:32:20.243Z,2.75
2023-04-20T01:34:52.025Z,2.95
2023-04-20T01:37:23.983Z,2.70
2023-04-20T01:39:52.684Z,2.60
2023-04-20T01:42:21.379Z,2.70
2023-04-20T01:44:50.045Z,2.47
2023-04-20T01:47:18.690Z,2.60
2023-04-20T01:49:47.269Z,2.80
2023-04-20T01:52:17.174Z,2.50
2023-04-20T01:54:47.281Z,2.42
2023-04-20T01:57:15.936Z,2.42
2023-04-20T01:59:45.548Z,2.10
2023-04-20T02:02:13.994Z,2.65
2023-04-20T02:04:42.604Z,2.70
2023-04-20T02:07:10.953Z,2.60
2023-04-20T02:09:39.482Z,2.97
2023-04-20T02:12:09.421Z,3.15
2023-04-20T02:14:37.734Z,2.92
2023-04-20T02:17:06.262Z,3.60
2023-04-20T02:19:35.057Z,3.00
2023-04-20T02:22:03.700Z,3.30
2023-04-20T02:24:32.278Z,3.08
2023-04-20T02:27:01.480Z,2.90
2023-04-20T02:29:31.312Z,3.03
2023-04-20T02:31:59.788Z,3.10
2023-04-20T02:34:28.548Z,2.80
2023-04-20T02:36:57.136Z,2.65
2023-04-20T02:39:25.702Z,2.78
2023-04-20T02:41:54.458Z,2.88
2023-04-20T02:44:23.072Z,3.42
2023-04-20T02:46:53.090Z,3.00
2023-04-20T02:49:21.813Z,3.47
2023-04-20T02:51:51.093Z,3.00
2023-04-20T02:54:19.430Z,2.85
2023-04-20T02:56:47.868Z,3.00
2023-04-20T02:59:16.591Z,2.38
2023-04-20T03:01:46.092Z,2.42
2023-04-20T03:04:16.254Z,2.65
2023-04-20T03:06:44.629Z,2.60
2023-04-20T03:09:13.386Z,2.90
2023-04-20T03:11:42.089Z,2.58
2023-04-20T03:14:10.779Z,2.42
2023-04-20T03:16:39.432Z,3.15
2023-04-20T03:19:08.175Z,2.72
2023-04-20T03:21:38.226Z,2.95
2023-04-20T03:24:07.680Z,3.17
2023-04-20T03:26:36.686Z,2.53
2023-04-20T03:29:05.172Z,2.65
2023-04-20T03:31:33.784Z,2.58
2023-04-20T03:34:02.474Z,2.55
2023-04-20T03:36:32.342Z,2.47
2023-04-20T03:39:02.214Z,2.70
2023-04-20T03:41:30.546Z,2.47
2023-04-20T03:43:59.009Z,2.45
2023-04-20T03:46:27.916Z,2.70
2023-04-20T03:48:56.626Z,2.38
2023-04-20T03:51:25.401Z,2.50
2023-04-20T03:53:54.204Z,2.72
2023-04-20T03:56:24.389Z,2.60
2023-04-20T03:58:54.020Z,2.72
2023-04-20T04:01:22.752Z,2.85
2023-04-20T04:03:51.751Z,2.83
2023-04-20T04:06:20.624Z,2.97
2023-04-20T04:08:49.045Z,3.10
2023-04-20T04:11:17.873Z,2.90
2023-04-20T04:13:48.360Z,2.63
2023-04-20T04:16:16.759Z,2.90
2023-04-20T04:18:45.684Z,2.90
2023-04-20T04:21:15.356Z,2.72
2023-04-20T04:23:43.970Z,2.55
2023-04-20T04:26:13.250Z,2.50
2023-04-20T04:28:42.129Z,2.53
2023-04-20T04:31:13.018Z,3.00
2023-04-20T04:33:41.730Z,2.97
2023-04-20T04:36:11.088Z,2.83
2023-04-20T04:38:39.563Z,3.22
2023-04-20T04:41:09.035Z,2.60
2023-04-20T04:43:37.599Z,2.83
2023-04-20T04:46:10.599Z,3.20
2023-04-20T04:48:42.459Z,2.58
2023-04-20T04:51:11.263Z,2.65
2023-04-20T04:53:39.936Z,2.83
2023-04-20T04:56:09.058Z,3.10
2023-04-20T04:58:37.870Z,2.60
2023-04-20T05:01:06.848Z,3.00
2023-04-20T05:03:35.777Z,3.00
2023-04-20T05:06:06.118Z,3.10
2023-04-20T05:08:35.278Z,2.80
2023-04-20T05:11:03.757Z,2.97
2023-04-20T05:13:32.251Z,3.20
2023-04-20T05:16:00.999Z,3.40
2023-04-20T05:18:29.630Z,3.28
2023-04-20T05:20:58.436Z,3.17
2023-04-20T05:23:28.291Z,3.13
2023-04-20T05:25:56.932Z,3.20
2023-04-20T05:28:25.668Z,3.47
2023-04-20T05:30:55.379Z,3.75
2023-04-20T05:33:24.334Z,3.50
2023-04-20T05:35:56.894Z,3.58
2023-04-20T05:38:25.755Z,4.03
2023-04-20T05:40:56.323Z,3.70
2023-04-20T05:43:25.296Z,3.47
2023-04-20T05:45:53.806Z,3.72
2023-04-20T05:48:22.198Z,4.07
2023-04-20T05:50:50.841Z,4.20
2023-04-20T05:53:19.521Z,3.95
2023-04-20T05:55:47.843Z,4.20
2023-04-20T05:58:18.460Z,4.53
2023-04-20T06:00:47.308Z,4.07
2023-04-20T06:03:16.896Z,4.05
2023-04-20T06:05:46.316Z,4.00
2023-04-20T06:08:14.932Z,4.07
2023-04-20T06:10:43.395Z,4.43
2023-04-20T06:13:11.998Z,4.70
2023-04-20T06:15:41.781Z,4.18
2023-04-20T06:18:10.242Z,3.97
2023-04-20T06:20:39.551Z,4.68
2023-04-20T06:23:07.906Z,4.60
2023-04-20T06:25:37.802Z,4.32
2023-04-20T06:28:07.306Z,5.10
2023-04-20T06:30:36.472Z,4.97
2023-04-20T06:33:06.903Z,4.28
2023-04-20T06:35:35.629Z,4.55
2023-04-20T06:38:12.307Z,4.65
2023-04-20T06:40:40.670Z,4.80
2023-04-20T06:43:09.371Z,5.03
2023-04-20T06:45:40.417Z,4.78
2023-04-20T06:48:24.024Z,5.35
2023-04-20T06:50:59.974Z,5.00
2023-04-20T06:53:28.309Z,5.50
2023-04-20T06:55:56.769Z,5.63
2023-04-20T06:58:25.184Z,5.93
2023-04-20T07:00:54.443Z,5.68
2023-04-20T07:03:24.809Z,5.75
2023-04-20T07:05:54.575Z,5.43
2023-04-20T07:08:29.114Z,5.70
2023-04-20T07:10:57.784Z,4.85
2023-04-20T07:13:30.914Z,5.80
2023-04-20T07:16:01.889Z,5.35
2023-04-20T07:18:35.150Z,5.50
2023-04-20T07:21:03.968Z,5.93
2023-04-20T07:23:32.492Z,6.00
2023-04-20T07:26:01.866Z,5.53
2023-04-20T07:28:30.272Z,5.65
2023-04-20T07:30:59.815Z,6.25
2023-04-20T07:33:30.173Z,6.72
2023-04-20T07:36:00.450Z,6.03
2023-04-20T07:38:29.724Z,5.93
2023-04-20T07:40:58.265Z,6.00
2023-04-20T07:43:26.679Z,6.10
2023-04-20T07:45:55.322Z,6.35
2023-04-20T07:48:23.988Z,5.65
2023-04-20T07:50:52.341Z,6.18
2023-04-20T07:53:22.905Z,6.15
2023-04-20T07:55:51.500Z,6.72
2023-04-20T07:58:21.192Z,5.30
2023-04-20T08:00:49.914Z,6.15
2023-04-20T08:03:18.784Z,5.57
2023-04-20T08:05:47.916Z,5.68
2023-04-20T08:08:18.218Z,5.47
2023-04-20T08:10:48.120Z,6.35
2023-04-20T08:13:16.742Z,5.70
2023-04-20T08:15:45.206Z,5.40
2023-04-20T08:18:14.238Z,5.90
2023-04-20T08:20:42.871Z,6.15
2023-04-20T08:23:11.166Z,6.00
2023-04-20T08:25:41.055Z,5.60
2023-04-20T08:28:19.238Z,5.80
2023-04-20T08:30:53.013Z,4.88
2023-04-20T08:33:21.503Z,5.35
2023-04-20T08:35:51.996Z,5.20
2023-04-20T08:38:32.835Z,5.47
2023-04-20T08:41:01.929Z,5.38
2023-04-20T08:43:33.003Z,5.55
2023-04-20T08:46:03.221Z,5.80
2023-04-20T08:48:36.637Z,7.07
2023-04-20T08:51:06.281Z,6.72
2023-04-20T08:53:35.248Z,7.00
2023-04-20T08:56:04.011Z,6.80
2023-04-20T08:58:35.329Z,6.93
2023-04-20T09:01:03.874Z,7.90
2023-04-20T09:03:36.959Z,7.35
2023-04-20T09:06:06.745Z,7.18
2023-04-20T09:08:40.185Z,7.93
2023-04-20T09:11:09.482Z,8.20
2023-04-20T09:13:39.699Z,7.70
2023-04-20T09:16:12.601Z,8.75
2023-04-20T09:18:41.086Z,8.60
2023-04-20T09:21:10.667Z,7.43
2023-04-20T09:23:39.195Z,7.65
2023-04-20T09:26:07.614Z,7.22
2023-04-20T09:28:40.464Z,7.70
2023-04-20T09:31:19.596Z,7.75
2023-04-20T09:33:58.060Z,8.20
2023-04-20T09:36:37.618Z,7.40
2023-04-20T09:39:09.932Z,7.80
2023-04-20T09:41:40.035Z,8.00
2023-04-20T09:44:10.935Z,7.43
2023-04-20T09:46:41.341Z,7.63
2023-04-20T09:49:11.630Z,7.75
2023-04-20T09:51:45.349Z,7.35
2023-04-20T09:54:16.341Z,6.93
2023-04-20T09:56:45.073Z,7.80
2023-04-20T09:59:20.493Z,6.70
2023-04-20T10:01:49.520Z,7.18
2023-04-20T10:04:18.565Z,7.45
2023-04-20T10:06:55.998Z,7.40
2023-04-20T10:09:26.257Z,7.40
2023-04-20T10:12:06.390Z,7.40
2023-04-20T10:14:37.151Z,6.45
2023-04-20T10:17:07.637Z,7.10
2023-04-20T10:19:43.537Z,7.82
2023-04-20T10:22:14.611Z,7.75
2023-04-20T10:24:42.995Z,6.90
2023-04-20T10:27:21.254Z,6.78
2023-04-20T10:29:51.495Z,7.22
2023-04-20T10:32:24.640Z,7.35
2023-04-20T10:35:03.856Z,6.20
2023-04-20T10:37:33.041Z,6.57
2023-04-20T10:40:01.856Z,5.60
2023-04-20T10:42:30.849Z,5.80
2023-04-20T10:45:01.186Z,6.20
2023-04-20T10:47:31.134Z,5.72
2023-04-20T10:50:11.536Z,6.15
2023-04-20T10:52:41.202Z,5.65
2023-04-20T10:55:22.219Z,5.85
2023-04-20T10:57:50.989Z,5.57
2023-04-20T11:00:23.115Z,5.70
2023-04-20T11:02:52.105Z,5.53
2023-04-20T11:05:21.158Z,5.45
2023-04-20T11:07:53.364Z,5.85
2023-04-20T11:10:22.201Z,5.90
2023-04-20T11:12:51.219Z,5.82
2023-04-20T11:15:21.665Z,5.55
2023-04-20T11:17:50.060Z,6.20
2023-04-20T11:20:18.732Z,5.45
2023-04-20T11:22:58.802Z,5.30
2023-04-20T11:25:28.335Z,5.13
2023-04-20T11:28:07.898Z,5.28
2023-04-20T11:30:44.566Z,5.57
2023-04-20T11:33:14.608Z,5.60
2023-04-20T11:35:45.003Z,5.32
2023-04-20T11:38:13.457Z,4.60
2023-04-20T11:40:42.648Z,4.68
2023-04-20T11:43:11.110Z,5.18
2023-04-20T11:45:41.919Z,5.07
2023-04-20T11:48:10.709Z,5.65
2023-04-20T11:50:41.015Z,5.40
2023-04-20T11:53:14.955Z,5.22
2023-04-20T11:55:43.612Z,4.63
2023-04-20T11:58:12.111Z,5.65
2023-04-20T12:00:42.084Z,5.22
2023-04-20T12:03:10.478Z,4.90
2023-04-20T12:05:39.574Z,5.50
2023-04-20T12:08:08.628Z,4.97
2023-04-20T12:10:37.060Z,5.30
2023-04-20T12:13:05.546Z,4.88
2023-04-20T12:15:34.665Z,4.78
2023-04-20T12:18:07.983Z,4.53
2023-04-20T12:20:36.571Z,4.60
2023-04-20T12:23:05.026Z,4.40
2023-04-20T12:25:33.655Z,4.65
2023-04-20T12:28:06.950Z,4.93
2023-04-20T12:30:36.053Z,4.75
2023-04-20T12:33:06.126Z,4.13
2023-04-20T12:35:34.566Z,4.28
2023-04-20T12:38:03.018Z,4.18
2023-04-20T12:40:31.683Z,4.50
2023-04-20T12:43:00.019Z,4.20
2023-04-20T12:45:29.303Z,4.45
2023-04-20T12:48:00.391Z,4.85
2023-04-20T12:50:30.555Z,4.35
2023-04-20T12:52:59.179Z,4.63
2023-04-20T12:55:27.873Z,3.83
2023-04-20T12:57:56.125Z,3.80
2023-04-20T13:00:24.665Z,3.70
2023-04-20T13:02:53.467Z,3.55
2023-04-20T13:05:22.667Z,3.95
2023-04-20T13:07:52.478Z,3.60
2023-04-20T13:10:27.083Z,4.70
2023-04-20T13:12:56.180Z,4.80
2023-04-20T13:15:37.834Z,4.20
2023-04-20T13:18:09.964Z,4.30
2023-04-20T13:20:38.886Z,4.38
2023-04-20T13:23:09.069Z,5.55
2023-04-20T13:25:39.300Z,4.45
2023-04-20T13:28:08.313Z,4.72
2023-04-20T13:30:36.642Z,4.70
2023-04-20T13:33:05.156Z,4.45
2023-04-20T13:35:34.409Z,4.70
2023-04-20T13:38:03.008Z,4.28
2023-04-20T13:40:33.030Z,4.20
2023-04-20T13:43:01.867Z,4.60
2023-04-20T13:45:30.931Z,4.80
2023-04-20T13:47:59.321Z,5.18
2023-04-20T13:50:27.904Z,4.03
2023-04-20T13:52:56.305Z,4.55
2023-04-20T13:55:26.793Z,4.53
2023-04-20T13:57:57.223Z,4.38
2023-04-20T14:00:26.693Z,4.18
2023-04-20T14:02:55.264Z,4.30
2023-04-20T14:05:24.124Z,4.10
2023-04-20T14:07:52.631Z,4.20
2023-04-20T14:10:21.110Z,4.10
2023-04-20T14:12:49.706Z,5.05
2023-04-20T14:15:19.854Z,4.18
2023-04-20T14:17:51.020Z,4.90
2023-04-20T14:20:20.900Z,4.90
2023-04-20T14:22:49.584Z,5.00
2023-04-20T14:25:17.970Z,5.38
2023-04-20T14:27:47.791Z,5.13
2023-04-20T14:30:16.750Z,5.20
2023-04-20T14:32:57.537Z,4.78
2023-04-20T14:35:28.269Z,4.97
2023-04-20T14:37:56.910Z,4.82
2023-04-20T14:40:25.397Z,5.00
2023-04-20T14:42:53.818Z,4.00
2023-04-20T14:45:22.929Z,4.60
2023-04-20T14:47:56.581Z,3.90
2023-04-20T14:50:28.024Z,3.78
2023-04-20T14:52:56.924Z,4.15
2023-04-20T14:55:26.348Z,3.55
2023-04-20T14:57:57.817Z,3.33
2023-04-20T15:00:28.652Z,3.22
2023-04-20T15:02:59.874Z,3.50
2023-04-20T15:05:29.663Z,3.45
2023-04-20T15:07:59.258Z,3.38
2023-04-20T15:10:28.023Z,2.83
2023-04-20T15:12:56.486Z,3.00
2023-04-20T15:15:26.668Z,3.05
2023-04-20T15:18:02.214Z,2.80
2023-04-20T15:20:30.748Z,2.95
2023-04-20T15:22:59.256Z,2.88
2023-04-20T15:25:28.355Z,3.22
2023-04-20T15:27:56.941Z,2.90
2023-04-20T15:30:25.633Z,2.67
2023-04-20T15:32:54.403Z,2.75
2023-04-20T15:35:24.520Z,3.05
2023-04-20T15:37:53.026Z,2.63
2023-04-20T15:40:22.022Z,2.72
2023-04-20T15:42:50.365Z,2.58
2023-04-20T15:45:19.076Z,2.72
2023-04-20T15:47:50.313Z,2.72
2023-04-20T15:50:19.187Z,2.53
2023-04-20T15:52:53.168Z,2.70
2023-04-20T15:55:22.304Z,2.90
2023-04-20T15:57:57.092Z,2.97
2023-04-20T16:00:25.827Z,2.88
2023-04-20T16:02:55.278Z,2.92
2023-04-20T16:05:27.326Z,2.88
2023-04-20T16:07:58.124Z,2.95
2023-04-20T16:10:27.610Z,2.90
2023-04-20T16:12:56.291Z,2.55
2023-04-20T16:15:25.477Z,2.55
2023-04-20T16:17:54.958Z,2.92
2023-04-20T16:20:23.878Z,2.88
2023-04-20T16:22:52.291Z,2.95
2023-04-20T16:25:24.225Z,3.17
2023-04-20T16:27:53.005Z,2.30
2023-04-20T16:30:21.805Z,3.25
2023-04-20T16:32:51.245Z,2.67
2023-04-20T16:35:19.819Z,2.95
2023-04-20T16:37:48.246Z,3.25
2023-04-20T16:40:16.965Z,2.50
2023-04-20T16:42:47.114Z,2.40
2023-04-20T16:45:16.555Z,2.38
2023-04-20T16:47:45.094Z,2.55
2023-04-20T16:50:19.828Z,2.50
2023-04-20T16:52:48.418Z,2.35
2023-04-20T16:55:17.324Z,2.55
2023-04-20T16:57:47.802Z,2.35
2023-04-20T17:00:17.623Z,2.08
2023-04-20T17:02:46.181Z,2.42
2023-04-20T17:05:14.804Z,2.22
2023-04-20T17:07:43.397Z,2.38
2023-04-20T17:10:12.288Z,2.20
2023-04-20T17:12:41.753Z,2.40
2023-04-20T17:15:13.341Z,2.22
2023-04-20T17:17:42.495Z,2.40
2023-04-20T17:20:11.889Z,2.70
2023-04-20T17:22:40.432Z,2.25
2023-04-20T17:25:09.967Z,1.98
2023-04-20T17:27:38.632Z,2.20
2023-04-20T17:30:08.788Z,2.05
2023-04-20T17:32:38.985Z,2.20
2023-04-20T17:35:08.028Z,1.55
2023-04-20T17:37:37.261Z,1.90
2023-04-20T17:40:07.974Z,2.08
2023-04-20T17:42:36.582Z,2.20
2023-04-20T17:45:06.105Z,1.92
2023-04-20T17:47:34.722Z,1.80
2023-04-20T17:50:04.910Z,2.00
2023-04-20T17:52:33.380Z,1.98
2023-04-20T17:55:02.195Z,1.83
2023-04-20T17:57:30.852Z,2.00
2023-04-20T17:59:59.578Z,2.17
2023-04-20T18:02:28.466Z,1.90
2023-04-20T18:04:59.772Z,1.90
2023-04-20T18:07:30.158Z,2.00
2023-04-20T18:09:58.721Z,1.85
2023-04-20T18:12:27.434Z,2.13
2023-04-20T18:14:56.103Z,1.92
2023-04-20T18:17:25.966Z,2.10
2023-04-20T18:19:54.596Z,2.22
2023-04-20T18:22:24.531Z,2.22
2023-04-20T18:24:54.942Z,2.20
2023-04-20T18:27:23.355Z,2.35
2023-04-20T18:29:53.296Z,2.10
2023-04-20T18:32:23.058Z,2.30
2023-04-20T18:34:52.250Z,1.92
2023-04-20T18:37:21.176Z,2.13
2023-04-20T18:39:49.887Z,2.08
2023-04-20T18:42:20.133Z,2.20
2023-04-20T18:44:49.998Z,2.00
2023-04-20T18:47:19.150Z,2.10
2023-04-20T18:49:47.981Z,2.10
2023-04-20T18:52:16.760Z,2.22
2023-04-20T18:54:46.903Z,2.20
2023-04-20T18:57:16.168Z,2.00
2023-04-20T18:59:46.608Z,2.35
2023-04-20T19:02:15.236Z,2.15
2023-04-20T19:04:44.200Z,2.50
2023-04-20T19:07:12.842Z,2.30
2023-04-20T19:09:41.178Z,2.10
2023-04-20T19:12:09.524Z,2.03
2023-04-20T19:14:38.104Z,2.08
2023-04-20T19:17:09.083Z,2.00
2023-04-20T19:19:37.953Z,1.80
2023-04-20T19:22:06.555Z,2.38
2023-04-20T19:24:35.009Z,2.30
2023-04-20T19:27:03.692Z,2.13
2023-04-20T19:29:37.777Z,1.80
2023-04-20T19:32:08.476Z,2.25
2023-04-20T19:34:42.665Z,2.00
2023-04-20T19:37:17.356Z,2.28
2023-04-20T19:39:55.259Z,2.63
2023-04-20T19:42:31.460Z,2.13
2023-04-20T19:45:11.226Z,2.30
2023-04-20T19:47:41.834Z,2.00
2023-04-20T19:50:14.207Z,1.88
2023-04-20T19:52:42.756Z,1.77
2023-04-20T19:55:11.528Z,2.00
2023-04-20T19:57:40.047Z,2.45
2023-04-20T20:00:10.569Z,1.65
2023-04-20T20:02:42.235Z,2.17
2023-04-20T20:05:11.575Z,2.20
2023-04-20T20:07:40.660Z,2.20
2023-04-20T20:10:09.896Z,2.60
2023-04-20T20:12:38.430Z,2.17
2023-04-20T20:15:10.766Z,2.20
2023-04-20T20:17:39.802Z,2.05
2023-04-20T20:20:12.499Z,2.03
2023-04-20T20:22:41.666Z,2.45
2023-04-20T20:25:10.683Z,2.20
2023-04-20T20:27:39.174Z,2.22
2023-04-20T20:30:09.075Z,2.30
2023-04-20T20:32:37.889Z,2.47
2023-04-20T20:35:09.571Z,2.75
2023-04-20T20:37:40.387Z,2.30
2023-04-20T20:40:12.403Z,2.58
2023-04-20T20:42:42.783Z,2.13
2023-04-20T20:45:12.932Z,2.53
2023-04-20T20:47:42.447Z,2.00
2023-04-20T20:50:11.954Z,2.17
2023-04-20T20:52:41.906Z,2.50
2023-04-20T20:55:11.171Z,2.22
2023-04-20T20:57:39.662Z,2.08
2023-04-20T21:00:10.722Z,2.20
2023-04-20T21:02:42.247Z,2.55
2023-04-20T21:05:11.893Z,2.50
2023-04-20T21:07:42.272Z,2.30
2023-04-20T21:10:13.304Z,2.67
2023-04-20T21:12:42.258Z,2.22
2023-04-20T21:15:13.056Z,2.50
2023-04-20T21:17:41.487Z,2.30
2023-04-20T21:20:11.754Z,1.92
2023-04-20T21:22:41.923Z,2.15
2023-04-20T21:25:10.920Z,1.80
2023-04-20T21:27:39.375Z,1.83
2023-04-20T21:30:09.057Z,2.00
2023-04-20T21:32:37.716Z,2.10
2023-04-20T21:35:06.659Z,2.03
2023-04-20T21:37:34.973Z,2.08
2023-04-20T21:40:05.552Z,2.05
2023-04-20T21:42:34.067Z,2.00
2023-04-20T21:45:03.813Z,1.60
2023-04-20T21:47:32.556Z,1.35
2023-04-20T21:50:01.652Z,1.70
2023-04-20T21:52:30.193Z,1.85
2023-04-20T21:54:58.812Z,2.17
2023-04-20T21:57:28.626Z,2.10
2023-04-20T21:59:57.295Z,1.73
2023-04-20T22:02:25.773Z,1.90
2023-04-20T22:04:56.289Z,1.67
2023-04-20T22:07:26.767Z,2.05
2023-04-20T22:09:55.388Z,2.35
2023-04-20T22:12:38.338Z,1.80
2023-04-20T22:15:15.362Z,2.08
2023-04-20T22:17:46.921Z,2.03
2023-04-20T22:20:19.332Z,2.30
2023-04-20T22:22:48.041Z,2.03
2023-04-20T22:25:16.547Z,1.70
2023-04-20T22:27:45.346Z,2.00
2023-04-20T22:30:15.369Z,1.88
2023-04-20T22:32:43.897Z,1.98
2023-04-20T22:35:12.190Z,2.30
2023-04-20T22:37:41.259Z,2.20
2023-04-20T22:40:12.558Z,1.98
2023-04-20T22:42:41.290Z,2.00
2023-04-20T22:45:11.976Z,2.50
2023-04-20T22:47:42.093Z,2.08
2023-04-20T22:50:12.435Z,2.13
2023-04-20T22:52:41.052Z,2.05
2023-04-20T22:55:11.174Z,2.10
2023-04-20T22:57:40.264Z,2.47
2023-04-20T23:00:14.075Z,2.00
2023-04-20T23:02:44.036Z,2.28
2023-04-20T23:05:13.082Z,2.25
2023-04-20T23:07:41.811Z,2.78
2023-04-20T23:10:12.094Z,2.10
2023-04-20T23:12:40.642Z,2.10
2023-04-20T23:15:10.903Z,2.40
2023-04-20T23:17:39.706Z,2.10
2023-04-20T23:20:14.007Z,2.25
2023-04-20T23:22:42.892Z,2.13
2023-04-20T23:25:11.713Z,2.00
2023-04-20T23:27:40.144Z,2.67
2023-04-20T23:30:10.251Z,2.30
2023-04-20T23:32:38.728Z,2.28
2023-04-20T23:35:08.266Z,2.75
2023-04-20T23:37:38.714Z,2.35
2023-04-20T23:40:10.347Z,2.33
2023-04-20T23:42:38.964Z,2.25
2023-04-20T23:45:08.830Z,2.13
2023-04-20T23:47:37.526Z,2.28
2023-04-20T23:50:07.370Z,2.20
2023-04-20T23:52:36.487Z,2.25
2023-04-20T23:55:07.480Z,2.17
2023-04-20T23:57:36.063Z,2.80
